Kezdőlap
METAR-TAF:

METAR-TAF

Repülőterek :

Pangnirtung, Nunavut, Kanada

földrajzi szélesség: 66-09N, földrajzi hosszúság: 065-43W, magasság: 23 m

Jelenlegi meteorológiai megfigyelések

A jelentés 1 órával és 31 perccel ezelõtt készült, 20:00 UTC
Szélcsend
Hőmérséklet -35°C
Páratartalom 60%
Légköri nyomás 1001 hPa
Látótávolság: 24.1 km
Derült ég

METAR: CYXP 222000Z 00000KT 15SM SKC M35/M40 A2956 RMK S0.0 AFTR 15UTC/10/LAST STFD OBS/NEXT 231700Z SLP018

Idő: 16:31 (21:31 UTC)

Előrejelzés

A jelentés 4 órával és 53 perccel ezelõtt készült, 16:38 UTC
Az előrejelzés 22-én 17 óra UTC és 22-én 20 óra UTC között érvényes
Különbözõ irányokból fújó szél 3 kt
Látótávolság: 10 km
Derült ég

TAF: CYXP 221638Z 2217/2220 VRB03KT P6SM SKC RMK NXT FCST WILL BE ISSUED AT 231845Z

Meteorológiai megfigyelések és előrejelzések több, mint 4000 repülőtéren (METAR és TAF jelentéseket).

A térképen piros és sárga pontok jelzik az elérhető meteorológiai állomásokat.

Mozgassa az egeret a pont fölött, hogy megjelenjen az állomás neve.

Azután kattintson az időjárási megfigyelések és előrejelzések megtekintéséhez.

A térkép megváltoztatása: kattintson a fekete keresztel jelölt zöld gombra ráközelítéshez, a vonallal jelölt zöld gombra távolításhoz, vagy a zöld nyilakra a szomszédos térképek eléréséhez.


METAR-TAF: